Betöltés...
Típus Rövid leírás Kikiáltási ár Minimum ár Aktuális ár Árverés vége
Üzletrész KICSI LOVAS KORLÁTOLT FELELŐSSÉGŰ TÁRSASÁG (cégjsz.:08-09-029398) 600000 6000 2022-09-30 08:00:00
Üzletrész XXX Rent Kft. (cégjsz.:19-09-511130) 900000 9000 2022-09-30 12:00:00
Üzletrész Csepregi Kastély Kft. (cégjsz.:01-09-963760) 1500000 15000 2022-09-30 12:00:00
Üzletrész Real Project Solution Kft. (cégjsz.:01-09-351161) 3000000 30000 2022-09-30 20:00:00
Üzletrész Lingu-Bau Korlátolt Felelősségű Társaság (cégjsz.:1309213015) 3000000 30000 2022-10-01 08:00:00
Üzletrész ROLAND PACKING KORLÁTOLT FELELŐSSÉGŰ TÁRSASÁG (cégjsz.:03-09-135480) 3000000 30000 2022-10-01 09:00:00
Üzletrész Phobos Holding Korlátolt Felelősségű Társaság (cégjsz.:01-09-391232) 3000000 30000 2022-10-02 10:00:00
Üzletrész BMÁ 2016. Szolgáltató Korlátolt Felelősségű Társaság (cégjsz.:06-09-026734) 3000000 30000 2022-10-02 13:00:00
Üzletrész MobileAuto Hungary Kft. (cégjsz.:01-09-375597) 100000 1000 2022-10-03 08:00:00
Üzletrész MAR-LON MANUFAKTÚRA Korlátolt Felelősségű Társaság (cégjsz.:05-09-030756) 3000000 30000 2022-10-03 11:00:00
Üzletrész A cég főtevékenysége: Üzletviteli, egyéb vezetési tanácsadás 3000000 30000 2022-10-03 16:00:00
Üzletrész üzletrész 1470000 14700 2022-10-03 17:00:00
Üzletrész PLASTIMER Kereskedelmi és Szolgáltató Korlátolt Felelősségű Társaságban adóst 3000000 30000 2022-10-04 13:00:00
Üzletrész Rendteremtő Kft. (cégjsz.:01-09-983418) 3000000 30000 2022-10-04 14:00:00
Üzletrész Hornyák Trade Kft. (cégjsz.:05-09-034785) 3000000 30000 2022-10-04 16:00:00
Üzletrész A gazdasági társaság Adós 1/1 tulajdon, tevékenységi köröket 3000000 30000 2022-10-05 14:00:00
Üzletrész URBANMOTORSPORT KERESKEDELMI KORLÁTOLT FELELŐSSÉGŰ TÁRSASÁG (cégjsz.:16-09-017728) 2700000 27000 2022-10-05 16:00:00
Üzletrész Mózi Car Hungary Kft. (cégjsz.:16-09-020062) adós tulajdoni hányada:100%, 300000 3000 2022-10-05 20:00:00
Üzletrész VENTUS CENTER KER.-SZOLG. KFT. (cégjsz.:13-09-208382) 3000000 30000 2022-10-06 13:00:00
Üzletrész Dynasty Energy Korlátolt Felelősségű Társaság (cégjsz.:01-09-375691) 1500000 15000 2022-10-06 14:00:00
Üzletrész Építőmester Szolgálat Korlátolt Felelősségű Társaság (cégjsz.:05-09-034479) 3000000 30000 2022-10-07 09:00:00
Üzletrész HORONEXT ROLOHORVO KORLÁTOLT FELELŐSSÉGŰ TÁRSASÁG (cégjsz.:01-09-354063) 3000000 30000 2022-10-07 11:00:00
Üzletrész GALAXY COMPACT Kft. (cégjsz.:01-09-381862) adós megillető, II. 1/1. 3000000 30000 2022-10-07 12:00:00
Üzletrész Big Tower Kft. (cégjsz.:01-09-284705) 3000000 30000 2022-10-07 14:00:00
Üzletrész DUNA-RESORT Ingatlanfejlesztő és Hasznosító Korlátolt Felelősségű Társaság (cégjsz.:01-09-718374) 100000 1000 2022-10-07 17:00:00
Üzletrész PARASZTBURGER Korlátolt Felelősségű Társaság (cégjsz.:1309137473) 3000000 30000 2022-10-08 09:00:00
Üzletrész DEM-AN BAU Korlátolt Felelősségű Társaság (cégjsz.:06-09-027346) adóst illető 3000000 30000 2022-10-09 11:00:00
Üzletrész SA-LA YU Bt. (cégjsz.:1906509089) 50000 500 2022-10-10 11:00:00
Üzletrész Májsztró Kebab Korlátolt Felelősségű Társaság címe: 2170 Aszód, 3000000 30000 2022-10-10 13:00:00
Üzletrész Hell & Angel Car Korlátolt Felelősségű Társaság (cégjsz.:01-09-331297) 3000000 30000 2022-10-10 15:00:00
Üzletrész Horváth Home Kft. (cégjsz.:0109357623) 3000000 30000 2022-10-10 16:00:00
Üzletrész Főtevékenység: Személygépjármű-, könnyűgépjármű-kereskedelem. 3000000 30000 2022-10-10 16:00:00
Üzletrész Sultan Kebab Kft. (cégjsz.:01-09-349021) 1500000 15000 2022-10-10 18:00:00
Üzletrész Adóst megillető üzletrész Autoline Plus Kft-ben 3000000 30000 2022-10-10 20:00:00
Üzletrész Rafter Tools Kft. (cégjsz.:05-09-033833) 3000000 30000 2022-10-11 09:00:00
Üzletrész GOLDEN POWER TEAM Korlátolt Felelősségű Társaság (cégjsz.:1309213196) 3000000 30000 2022-10-11 09:00:00
Üzletrész Horváth Building Trade Korlátolt Felelősségű Társaság (cégjsz.:1509089021) 3000000 30000 2022-10-11 09:00:00
Üzletrész BORSOD CINEMA Nonprofit Kft. (cégjsz.:0509022265) 1500000 15000 2022-10-11 13:00:00
Üzletrész Árverésre kerül adós üzletrésze az Ráma-art Design KORLÁTOLT 1500000 15000 2022-10-11 15:00:00
Üzletrész Gibok Project Plus Kft. (cégjsz.:01-09-388455) 3000000 30000 2022-10-11 17:00:00
Üzletrész TAKANSPEED Kereskedelmi és Szolgáltató Kft. (cégjsz.:05-09-035550) 3000000 30000 2022-10-11 19:00:00
Üzletrész VASI CZESZ-ÉP Kft. (cégjsz.:18-09-114499) 1500000 15000 2022-10-11 19:00:00
Üzletrész Natiuidade De Serra Kereskedelmi és Szolgáltató Kft. (cégjsz.:01-09-190012) 3000000 30000 2022-10-11 20:00:00
Üzletrész FUFUTÖFI SZOLGÁLTATÓ KORLÁTOLT FELELŐSSÉGŰ TÁRSASÁG (cégjsz.:19-09-520760) 750000 7500 2022-10-11 20:00:00
Üzletrész Green Diamonds Hungary Kereskedelmi és Szolgáltató Korlátolt Felelősségű 3000000 30000 2022-10-11 20:00:00
Üzletrész TEUTÁHOZ Korlátolt Felelősségű Társaság (cégjsz.:01-09-292754) 3000000 30000 2022-10-12 08:00:00
Üzletrész VLP Agro Korlátolt Felelősségű Társaság (cégjsz.:16-09-020160) adóst illető 3000000 750000 2022-10-15 17:00:00
Üzletrész Web Santino korlátolt Felelősségű Társaság (cégjsz.:01-09-394392) üzletrész 100% 3000000 750000 2022-10-16 15:00:00
Üzletrész GREEN-PÁZSIT Kft.-ben lévő üzletrész (cégjsz.:01-09-346755) 3000000 750000 2022-10-17 08:00:00
Üzletrész Bertech-Bau Ép. és Szolg. Kft. (cégjsz.:0509033706) 3000000 750000 2022-10-17 09:00:00
Üzletrész TÓTH ÉS JUHÁSZ TEXTIL KORLÁTOLT FELELŐSSÉGŰ TÁRSASÁG (cégjsz.:14-09-317620) 1500000 375000 2022-10-17 09:00:00
Üzletrész A 01-09-866835 cégjegyzékszámon nyilvántartott EOLUS Kft. vagyonából az 3100000 775000 2022-10-17 11:00:00
Üzletrész Creature Hungary Kft.-ben lévő üzletrész (cégjsz.:05-09-035181) 3000000 750000 2022-10-17 11:00:00
Üzletrész A cég főtevékenysége: Lakó- és nem lakó épület 3000000 750000 2022-10-17 14:00:00
Üzletrész CONTACT EXPRESS Kft.-ben lévő üzletrész (cégjsz.:01-09-723804) 900000 225000 2022-10-17 14:00:00
Üzletrész A 01-09-901135 cégjegyzékszámon nyilvántartott Greenergy SBG Szélerőmű Kft. 3100000 775000 2022-10-17 18:00:00
Üzletrész Space Army Kft. "kt.a." (cégjsz.:01-09-345130) 2100000 525000 2022-10-18 08:00:00
Üzletrész Vevőszolgálat Kereskedelmi és Szolgáltató Kft. (cégjsz.:20-09-076333) 1500000 375000 2022-10-18 10:00:00
Üzletrész Berbekucz Tanya Korlátolt Felelősségű Társaság (cégjsz.:1309174175) 3000000 750000 2022-10-18 12:00:00
Üzletrész KATE-RINA INVEST Kft. (cégjsz.:0409015916) 3000000 750000 2022-10-18 13:00:00
Üzletrész Mexpauer Kft. (cégjsz.:01-09-343335) 3000000 750000 2022-10-18 13:00:00
Üzletrész Alpinus Kereskedelmi és Termelő Korlátolt Felelősségű Társaság (cégjsz.:1309164811) 3000000 750000 2022-10-18 16:00:00
Üzletrész Adós Blue Giraffe Kft.-ben meglévő üzletrésze 1000000 250000 2022-10-18 20:00:00
Üzletrész A cég főtevékenysége: Általános épülettakarítás 3000000 750000 2022-10-19 15:00:00
Üzletrész A cég főtevékenysége: Üzletviteli, egyéb vezetési tanácsadás 2900000 725000 2022-10-19 16:00:00
Üzletrész Sweet Karma 17 KFT (cégjsz.:0109340207) 3000000 750000 2022-10-20 10:00:00
Üzletrész A cég főtevékenysége: Személybiztonsági tevékenység 3000000 750000 2022-10-20 14:00:00
Üzletrész Hévíz 2007 Szállodaipari Kft. (cégjsz.:01-09-890246) 200000 50000 2022-10-21 09:00:00
Üzletrész Pallets - Timbers Kft. (cégjsz.:0909032428) 3000000 750000 2022-10-21 11:00:00
Üzletrész Welford Investment Kft. (cégjsz.:01-09-270896) 3000000 750000 2022-10-21 11:00:00
Üzletrész BLUE HIGHWAY Kereskedelmi és Szolgáltató Korlátolt Felelősségű Társaság 3000000 750000 2022-10-21 13:00:00
Üzletrész BENDŐ MENTŐ KERESKEDELMI ÉS SZOLGÁLTATÓ KORLÁTOLT FELELŐSSÉGŰ TÁ 3000000 750000 2022-10-21 13:00:00
Üzletrész 2014 Európataxi Kft. (cégjsz.:19-09-517459), adóst megillető üzletrésze. 1860000 465000 2022-10-21 14:00:00
Üzletrész Red Lothar Lavoro Korlátolt Felelősségű Társaság (cégjsz.:0109328934) 3000000 750000 2022-10-21 18:00:00
Üzletrész ANIMAX-TRADE Kft. Adóst megillető üzletrész 3000000 750000 2022-10-21 19:00:00
Üzletrész Lennert Kert - és Építő Korlátolt Felelősségű Társaság 3000000 750000 2022-10-21 19:00:00
Üzletrész Látos Corporation Vendéglátóipari Korlátolt Felelősségű Társaság (cégjsz.:19-09-518515) 3000000 750000 2022-10-21 19:00:00
Üzletrész Rézbau Group Kft (cégjsz.:0109393347) 3000000 750000 2022-10-22 11:00:00
Üzletrész MUKI-Generál Hungary Kft. (cégjsz.:01-09-379141) 3000000 750000 2022-10-23 09:00:00
Üzletrész PLATFORM ÉPÍTŐ IPARI KFT. (cégjsz.:01-09-380811) 10000000 2500000 2022-10-23 10:00:00
Üzletrész Angyalos Ber Korlátolt Felelősségű Társaság (cégjsz.:01-09-387105) 3000000 750000 2022-10-23 12:00:00
Üzletrész Üzletrész: HIKSZ Kft. "f.a." 1250000 312500 2022-10-23 14:00:00
Üzletrész "SABULA PONT" Kft. (cégjsz.:11-09-008019) 1000000 250000 2022-10-23 16:00:00
Üzletrész VIP Plusz Kft. (cégjsz.:0109377460) 500000 125000 2022-10-23 18:00:00
Üzletrész DREAMSUP PÉNZÜGYI SZOLGÁLTATÓ ÉS KERESKEDELMI KORLÁTOLT FELELŐSS (cégjsz.:03-09-131481) 3000000 750000 2022-10-24 08:00:00
Üzletrész Erős Boy Korlátolt Felelősségű Társaság (cégjsz.:07-09-030882) 3000000 750000 2022-10-24 11:00:00
Üzletrész Fifti & Fifti General Kft -ben lévő üzletrész 3000000 750000 2022-10-24 14:00:00
Üzletrész Proszent Car Kft (cégjsz.:01-09-275322) 3000000 750000 2022-10-24 14:00:00
Üzletrész Pantas Sutardja Kft..- ben az adóst megillető üzletrésze 3000000 750000 2022-10-24 15:00:00
Üzletrész DDC METALWORK ÉPSZER KERESKEDELMI ÉS SZOLGÁLTATÓ KFT. (cégjsz.:16-09-019135) 3000000 750000 2022-10-24 17:00:00
Üzletrész Vajda Building-Trade Korlátolt Felelősségű Társaság (cégjsz.:01-09-389894) 5000000 1250000 2022-10-24 19:00:00
Üzletrész Vadász Investment Korlátolt Felelősségű Társaság (cégjsz.:08-09-016469) 1000000 250000 2022-10-24 20:00:00
Üzletrész Bárka Bisztró Korlátolt Felelősségű Társaság (cégjsz.:08-09-003209) 1000000 250000 2022-10-24 20:00:00
Üzletrész SOS FÉMDOKI IPARI ÉS SZOLGÁLTATÓ KORLÁTOLT FELELŐSSÉGŰ TÁRSASÁG 1530000 382500 2022-10-25 08:00:00
Üzletrész Ilfirin-System Bau Korlátolt Felelősségű Társaság (cégjsz.:01-09-376630) 3000000 750000 2022-10-25 13:00:00
Üzletrész KATANA-RAJANA Korlátolt Felelősségű Társaság (cégjsz.:01-09-347065) 100000 25000 2022-10-25 15:00:00
Üzletrész A cég főtevékenysége: Biztosítási ügynöki, brókeri tevékenység 1800000 450000 2022-10-25 15:00:00
Üzletrész DNS Autó Electric Szolgáltató Kft. (cégjsz.:01-09-991065) 3000000 750000 2022-10-25 15:00:00
Üzletrész Ardington Prom Hungary Kft. (cégjsz.:01-09-349537) 3000000 750000 2022-10-25 16:00:00
Üzletrész RICHÁRD HOLDING KFT. (cégjsz.:01-09-170226) 2000000 500000 2022-10-25 20:00:00
Üzletrész Uradalmi Major Korlátolt felelősségű Társaság (cégjsz.:19-09-519587) 1000000 250000 2022-10-25 20:00:00
Üzletrész Arborete Opera Kft. (cégjsz.:0109321628) 3000000 750000 2022-10-25 20:00:00
Üzletrész Wolf Car Trade Kft. (cégjsz.:06-09-027256) 3000000 750000 2022-10-26 09:00:00
Üzletrész BO-CSA TRANS Korlátolt Felelősségű Társaság (cégjsz.:01-09-336345) 1589000 397250 2022-10-26 14:00:00
Üzletrész ISLAND BAU EXCELLENT KORLÁTOLT FELELŐSSÉGŰ TÁRSASÁG (cégjsz.:13-09-213224) 3000000 750000 2022-10-27 09:00:00
Üzletrész MG NÍVÓ Ingatlanfejlesztő és Tanácsadó Korlátolt Felelősségű Társaság 1500000 375000 2022-10-27 14:00:00
Üzletrész IVA-99 Kereskedelmi és Szolgáltató Korlátolt Felelősségű Társaság (cégjsz.:09-09-008946) 2000000 500000 2022-10-27 15:00:00
Üzletrész LKTS Bau és Ker. Kft. (cégjsz.:05-09-034652) 3000000 1500000 2022-10-28 09:00:00
Üzletrész HELÉNA BÜFÉJE Kft. (cégjsz.:10-09-036451) 3000000 1500000 2022-10-28 10:00:00
Üzletrész KRISZÉPFOL Kft. (cégjsz.:13-09-180341) 3000000 1500000 2022-10-28 10:00:00
Üzletrész MÜLLER - ÉP Kft. (cégjsz.:13-09-188058) 3000000 1500000 2022-10-28 11:00:00
Üzletrész A.K.G. LTD Kft. (cégjsz.:01-09-328673) 5000000 2500000 2022-10-28 12:00:00
Üzletrész "VARGA ÉPÍTŐ HUNGARY" Korlátolt Felelősségű Társaság (cégjsz.:0109371912) 3000000 1500000 2022-10-28 13:00:00
Üzletrész RED BAU KAPITÁL Korlátolt Felelősségű Társaság (cégjsz.:16-09-020084) 3000000 1500000 2022-10-28 15:00:00
Üzletrész Royal Gold Group Korlátolt Felelősségű Társaság (cégjsz.:01-09-340441) 3000000 1500000 2022-10-28 15:00:00
Üzletrész Amiről Álmodtál..." Korlátolt Felelősségű Társaság (cégjsz.:01-09-203167) 2700000 1350000 2022-10-28 17:00:00
Üzletrész MEGAFEER 2022 Fémipari Korlátolt Felelősségű Társaság (cégjsz.:01-09-395494) 3000000 1500000 2022-10-28 17:00:00
Üzletrész Guess-Maga Fémszerkezetgyártó Korlátolt Felelősségű Társaság (cégjsz.:08-09-034533) 3000000 1500000 2022-10-28 18:00:00
Üzletrész "ZSOLA Teljes körű Építőipari" Korlátolt Felelősségű Társaság (cégjsz.:1509088453) 3000000 1500000 2022-10-28 19:00:00
Üzletrész E-Vákuumtechnika Kft. (cégjsz.:13-09-175903) 1500000 750000 2022-10-29 08:00:00
Üzletrész EISABAU KORLÁTOLT FELELŐSSÉGŰ TÁRSASÁG Cégjegyz:16-09-020356 Adósz:27492781216 Statsz:27492781-0161-113-16 Adós 3000000 1500000 2022-10-29 09:00:00
Üzletrész A végrehajtás alá vont 1/1 tulajdoni illetőség tehermentesen 3000000 1500000 2022-10-29 20:00:00
Üzletrész A végrehajtás alá vont 1/1 tulajdoni illetőség tehermentesen 3000000 1500000 2022-10-29 20:00:00
Üzletrész WELLWATT Projektmenedzsment Korlátolt Felelősségű Társaság (cégjsz.:07-09-032057) 3000000 1500000 2022-10-29 20:00:00
Üzletrész Pallets - Timbers Kft. (cégjsz.:0909032428) 3000000 1500000 2022-10-31 09:00:00
Üzletrész A 01-09-357018 cégjegyzékszámon nyilvántartott EDILLA-VÉD Kft vagyonából adóst 3000000 1500000 2022-10-31 10:00:00
Üzletrész KŐRÖS ROYAL GASTRO Korlátolt Felelősségű Társaság (cégjsz.:13-09-190122) 1500000 750000 2022-10-31 12:00:00
Üzletrész Major-Car Korlátolt Felelősségű Társaság (cégjsz.:13-09-219675) 3000000 1500000 2022-10-31 13:00:00
Üzletrész Keresztes Euro Trans Fuvarozó Kft. (cégjsz.:13-09-205307) 3000000 1500000 2022-10-31 13:00:00
Üzletrész Varga Sándorné adóst megillető üzletrész az alábbi gazdasági 1500000 750000 2022-10-31 14:00:00
Üzletrész Varga Sándor László adóst megillető üzletrész az alábbi 1500000 750000 2022-10-31 14:00:00
Üzletrész Fejér-Mérleg Korlátolt Felelősségű Társaság (cégjsz.:07-09-015775) 3000000 1500000 2022-10-31 20:00:00
Üzletrész A Kft. ellen az Egri Városi bíróság Vh.712/2010 3000000 1500000 2022-11-01 11:00:00
Üzletrész Adós Alaptól Tetőig 2021 Kft.-ben meglévő üzletrésze 1000000 500000 2022-11-01 12:00:00
Üzletrész MARTIN GENERAL Korlátolt Felelősségű Társaság (cégjsz.:1509089259) 3000000 1500000 2022-11-01 12:00:00
Üzletrész LP-Technic Plus Műszaki és Szolgáltató Korlátolt Felelősségű Társaság 3000000 1500000 2022-11-01 17:00:00
Üzletrész VARGA TEAM ÉPTEK Korlátolt Felelősségű Társaság (cégjsz.:0109397714) 3000000 1500000 2022-11-01 17:00:00
Üzletrész Wir Bauen Korlátolt Felelősségű Társaság (cégjsz.:01-09-394620) 3000000 1500000 2022-11-01 18:00:00
Üzletrész Amigo Mobility Europe Kft. (cégjsz.:01-09-337772) 3000000 1500000 2022-11-01 19:00:00
Üzletrész BAU-MODUL Kereskedelmi és Szolgáltató Korlátolt Felelősségű (cégjsz.:07-09-016263) 3000000 1500000 2022-11-01 19:00:00
Üzletrész FOOD REUSE KORLÁTOLT FELELŐSSÉGŰ TÁRSASÁG (cégjsz.:14-09-316712) 3000000 1500000 2022-11-02 20:00:00
Üzletrész Fest- Quest Korlátolt Felelősségű Társaság (cégjsz.:09-09-029449) 1500000 750000 2022-11-03 11:00:00
Üzletrész Szabó Tejivó Kereskedelmi, Vendéglátó és Szolgáltató Korlátolt Felelősségű 1500000 750000 2022-11-03 14:00:00
Üzletrész A cég főtevékenysége: Társadalomtudományi, humán kutatás, fejlesztés 3000000 1500000 2022-11-03 18:00:00
Üzletrész Az árverésre kerülő ingóság az adós Dimenzionális Hangolás 3500000 1750000 2022-11-03 20:00:00
Üzletrész Az árverésre kerülő ingóság az adós SZG KER 3000000 1500000 2022-11-03 20:00:00
Üzletrész Az árverésre kerülő ingóság az adós Rosington Korlátolt 3000000 1500000 2022-11-03 20:00:00
Üzletrész Emirates Trade Korlátolt Felelősségű Társaság (cégjsz.:01-09-324952) 2850000 1425000 2022-11-04 08:00:00
Üzletrész DO-BO TRADE & TRANSIT Korlátolt Felelősségű Társaság (cégjsz.:14-09-318845) 3000000 1500000 2022-11-04 08:00:00
Üzletrész Locomotiv Logistics Korlátolt Felelősségű Társaság (cégjsz.:0109941352) 100000 50000 2022-11-04 09:00:00
Üzletrész ALU-ADU Felépítmény Korlátolt Felelősségű Társaság (cégjsz.:1309200984) 5000000 2500000 2022-11-04 13:00:00
Üzletrész TRANSIT ÉPÍTŐ KORLÁTOLT FELELŐSSÉGŰ TÁRSASÁG (cégjsz.:10-09-039255) 3000000 1500000 2022-11-04 15:00:00
Üzletrész BEST RENTAL CAR SZOLGÁLTATÓ KORLÁTOLT FELELŐSSÉGŰ TÁRSASÁG (cégjsz.:03-09-130132) 3000000 1500000 2022-11-04 15:00:00
Üzletrész A 01-09-334197 cégjegyzékszámon nyilvántartott Monerorent Szolgáltató Kft. vagyonából 3000000 1500000 2022-11-04 18:00:00
Üzletrész A 13-09-188493 cégjegyzékszámon nyilvántartott KÖNYVKÖZPONT Ingatlanhasznosító és Szolgáltató 1550000 775000 2022-11-04 18:00:00
Üzletrész NETENDER SOLUTIONS Korlátolt Felelősségű Társaság (cégjsz.:1309201221) 3000000 1500000 2022-11-07 08:00:00
Üzletrész A 01-09-392489 cégjegyzékszámon nyilvántartott Óndi Bau Kft. vagyonából 3000000 1500000 2022-11-07 09:00:00
Üzletrész A cég főtevékenysége: Játék-kiskereskedelem 3000000 1500000 2022-11-07 18:00:00
Üzletrész A cég főtevékenysége: Általános épülettakarítás 3000000 1500000 2022-11-07 18:00:00
Üzletrész PDR PACK HUNGARY Korlátolt Felelősségű Társaság (cégjsz.:13-09-210201) 100000 50000 2022-11-07 19:00:00
Üzletrész SOLFIX CAR KORLÁTOLT FELELŐSSÉGŰ TÁRSASÁG (cégjsz.:13-09-205051) 3000000 1500000 2022-11-08 08:00:00
Üzletrész FOURS BROS PRODUCTS KORLÁTOLT FELELŐSSÉGŰ TÁRSASÁG (cégjsz.:09-09-031968) 1000000 500000 2022-11-08 08:00:00
Üzletrész BORSOD CINEMA Nonprofit Kft. (cégjsz.:0509022265) 1500000 750000 2022-11-08 13:00:00
Üzletrész A Mátra-Mélyépítő Építőipari Kft.-ben az adóst megillető üzletrész. 600000 300000 2022-11-08 13:00:00
Üzletrész HOME SYSTEM EUROPE Szolgáltató Kft.-ban az adóst meillető 1500000 750000 2022-11-08 14:00:00
Üzletrész Alex80 Autó Korlátolt Felelősségű Társaság (cégjsz.:0109351812) 1/1 tulajdoni 3000000 1500000 2022-11-08 14:00:00
Üzletrész Juhász-Média Kft. (cégjsz.:1309166179) 3000000 1500000 2022-11-08 17:00:00
Üzletrész "Forever Eurobau" Építőipari és Szolgáltató KFT. (cégjsz.:19-09-517206) 3000000 1500000 2022-11-08 18:00:00
Üzletrész Cg.14-09-319053 Hush Gips KFT.-ben az adóst megillető üzletrész 3000000 1500000 2022-11-08 20:00:00
Üzletrész IGM Consulting Korlátolt Felelősségű Társaság (cégjsz.:01-09-309692) 3000000 1500000 2022-11-09 10:00:00
Üzletrész Vigilant Protection Korlátolt Felelősségű Társaság (cégjsz.:01-09-291902) 3000000 1500000 2022-11-10 08:00:00
Üzletrész BAU-SYSTEM KORLÁTOLT FELELŐSSÉGŰ TÁRSASÁG (cégjsz.:13-09-195791) 3000000 1500000 2022-11-11 08:00:00
Üzletrész Bútor Lujó Korlátolt Felelősségű Társaság (cégjsz.:01-09-328577) 3000000 1500000 2022-11-11 08:00:00
Üzletrész Reboot Trade Kft-ben lévő adósi üzletrész. 3000000 1500000 2022-11-11 09:00:00
Üzletrész MENDI-TREE NOVA Korlátolt Felelősségű Társaság (cégjsz.:13-09-185741) 3000000 1500000 2022-11-11 09:00:00
Üzletrész Bio Petra Trade Kft. (cégjsz.:01-09-356514) 3000000 1500000 2022-11-11 09:00:00
Üzletrész Mocsel Bau Korlátolt Felelősségű Társaság (cégjsz.:13-09-205032) 3000000 1500000 2022-11-11 09:00:00
Üzletrész A gazdasági társaság cégnyilvántartásba való bejegyzésére 2019.10.24-én került 3000000 1500000 2022-11-11 09:00:00
Üzletrész NO-NO Bau Korlátolt Felelősségű Társaság (cégjsz.:01-09-341658) 1500000 750000 2022-11-11 10:00:00
Üzletrész D-Vill Elektrik Kft. (cégjsz.:13-09-190714) 3000000 1500000 2022-11-11 10:00:00
Üzletrész FOURS BROS PRODUCTS KORLÁTOLT FELELŐSSÉGŰ TÁRSASÁG (cégjsz.:09-09-031968) 1000000 500000 2022-11-11 10:00:00
Üzletrész BEAT TEAM HOLDING KFT. (cégjsz.:13-09-173213) 3000000 1500000 2022-11-11 13:00:00
Üzletrész ZÖLD-INNO-PROJECT Korlátolt Felelősségű Társaság (cégjsz.:01-09-385020) 3000000 1500000 2022-11-11 14:00:00
Üzletrész FEGAROM ÉPÍTŐIPARI ÉS KERESKEDELMI Kft. (cégjsz.:12-09-011444) 900000 450000 2022-11-11 16:00:00
Üzletrész GORE-TOR-BAY 2011 KFT (cégjsz.:01-09-961162) Tulajdoni hányad: 1/1 3000000 1500000 2022-11-11 16:00:00
Üzletrész A 01-09-188112 cégjegyzékszámon nyilvánztartott HarmonyTrade Kft. vagyonából az 3000000 1500000 2022-11-11 18:00:00
Üzletrész LEX Irodatechnika Korlátolt Felelősségű Társaság (cégjsz.:01-09-184926) 3000000 1500000 2022-11-11 19:00:00
Üzletrész FOGISMA Conference Korlátolt Felelősségű Társaság (cégjsz.:01-09-347561) 3000000 2250000 2022-11-12 16:00:00
Üzletrész Ökologisztika Univerzum Korlátolt Felelősségű Társaság (cégjsz.:01-09-386136) 1500000 1125000 2022-11-12 16:00:00
Üzletrész BEDOLA-Gyógyír Humánegészségügyi Szolg. Kft. (cégjsz.:03-09-117334) 3000000 2250000 2022-11-12 18:00:00
Üzletrész GLOBAL STOCK Korlátolt Felelősségű Társaság (cégjsz.:0109340310) 3000000 2250000 2022-11-13 09:00:00
Üzletrész Provence Tech Kft. (cégjsz.:01-09-349318) 3000000 2250000 2022-11-13 10:00:00
Üzletrész Lux Profil Info Kft. (cégjsz.:01-09-387032) 1500000 1125000 2022-11-13 17:00:00
Üzletrész Sava Investment Kft.-ben az adóst megillető üzletrésze 3000000 2250000 2022-11-14 11:00:00
Üzletrész Kardos Generál Kft. (cégjsz.:13-09-191420) 1500000 1125000 2022-11-14 12:00:00
Üzletrész HERSZIL-BAU KORLÁTOLT FELELŐSSÉGŰ TÁRSASÁG (cégjsz.:14-09-317484) 3000000 2250000 2022-11-14 12:00:00
Üzletrész VERSATILS FAMILY COMPANY KFT. (cégjsz.:0509034232) 1500000 1125000 2022-11-14 13:00:00
Üzletrész Szőke Betonacél Szerelő Kft. (cégjsz.:01-09-304400) 3000000 2250000 2022-11-14 15:00:00
Üzletrész BÓDIÉP BAU KORLÁTOLT FELELŐSSÉGŰ TÁRSASÁG (cégjsz.:05-09-032469) 3000000 2250000 2022-11-14 17:00:00
Üzletrész Bitfer Topbau Kft. (cégjsz.:05-09-035563) 1500000 1125000 2022-11-14 18:00:00
Üzletrész A cégnyilvántartás adatai szerint a Nemzeti Adó-és Vámhivatal 3000000 2250000 2022-11-15 08:00:00
Üzletrész S-forrás Golding Kft. (cégjsz.:13-09-214669) 3000000 2250000 2022-11-15 09:00:00
Üzletrész Szakipari-Generál Korlátolt Felelősségű Társaság (cégjsz.:1309219341) 3000000 2250000 2022-11-15 10:00:00
Üzletrész SWC Management Korlátolt Felelősségű Társaság (cégjsz.:1309211864) 3000000 2250000 2022-11-15 13:00:00
Üzletrész Árverésre kerül adós üzletrésze a MESTER BAUTECH Kft.-ben. 3000000 2250000 2022-11-15 13:00:00
Üzletrész A cég főtevékenysége: Telekommunikációs termék kiskereskedelme 1500000 1125000 2022-11-15 15:00:00
Üzletrész Multi Ferrum Nova Kft. (cégjsz.:01-09-337999) 3000000 2250000 2022-11-15 15:00:00
Üzletrész BAKHTÁLO KORLÁTOLT FELELŐSSÉGŰ TÁRSASÁG (cégjsz.:1309204928) 3000000 2250000 2022-11-15 16:00:00
Üzletrész FLOTTA TREND KORLÁTOLT FELELŐSSÉGŰ TÁRSASÁG (cégjsz.:0109279505) 3000000 2250000 2022-11-15 17:00:00
Üzletrész adós tulajdoni hányada: 1/1 3000000 2250000 2022-11-16 09:00:00
Üzletrész Hajdu Csatorna Korlátolt Felelősségű Társaság (cégjsz.:1309207278) 3000000 2250000 2022-11-16 10:00:00
Üzletrész HajdúG2017 Közszolgáltató, Csatornatisztító és Építőipari Korlátolt Felelősségű Társaság 3000000 2250000 2022-11-16 13:00:00
Üzletrész GALMIN Product Korlátolt Felelősségű Társaság (cégjsz.:01-09-289919) 300000 225000 2022-11-19 13:00:00
Üzletrész InnovaDoor Solutions Korlátolt Felelősségű Társaság (cégjsz.:19-09-521325) 750000 562500 2022-11-19 14:00:00
Üzletrész ZSK Cien Group Kft. (cégjsz.:01-09-371974) 3000000 2250000 2022-11-19 18:00:00
Üzletrész AttilAgro Korlátolt Felelősségű Társaság (cégjsz.:02-09-085690) 3000000 2250000 2022-11-19 20:00:00
Üzletrész NAGEKA Korlátolt Felelősségű Társaság (cégjsz.:07-09-030163) 1500000 1125000 2022-11-20 20:00:00
Üzletrész PRIZMA SHOP Korlátolt Felelősségű Társaság (cégjsz.:20-09-077810) 3000000 2250000 2022-11-21 09:00:00
Üzletrész 1RKR Medishop Korlátolt Felelősségű Társaság (cégjsz.:20-09-077811) 3000000 2250000 2022-11-21 09:00:00
Üzletrész PADLOPON 2021-TEAM KFT. (cégjsz.:01-09-380786) 3000000 2250000 2022-11-21 10:00:00
Üzletrész AlfaSmileBau Korlátolt Felelősségű Társaság (cégjsz.:03-09-135920) 3000000 2250000 2022-11-21 11:00:00
Üzletrész PETCARGAB-CAR Korlátolt Felelősségű Társaság " kényszertörlés alatt " 3000000 2250000 2022-11-21 12:00:00
Üzletrész FIX kezelők Kft. (cégjsz.:13-09-213739) 3000000 2250000 2022-11-21 12:00:00
Üzletrész Vajszlói Sütőipari Korlátolt Felelősségű Társaság (cégjsz.:02-09-061450) 1400000 1050000 2022-11-21 19:00:00
Üzletrész Profelán Partner Kereskedelmi és Szolgáltató Korlátolt Felelősségű Társaság 3000000 2250000 2022-11-21 20:00:00
Üzletrész A 13-09-218731 cégjegyzékszámon nyilvántartott Transport-Dryvit Kft. vagyonából adóst 3000000 2250000 2022-11-22 13:00:00
Üzletrész Hanna Bau-ép Invest Korlátolt Felelősségű Társaság (cégjsz.:03-09-129089) 3000000 2250000 2022-11-22 13:00:00
Üzletrész Forest Bisnis Korlátolt Felelősségű Társasás (cégjsz.:01-09-401780) 3000000 2250000 2022-11-22 15:00:00
Üzletrész KDC Gastro Korlátolt Felelősségű Társaság (cégjsz.:01-09-321040) 1500000 1125000 2022-11-22 15:00:00
Üzletrész Fela Munio Korlátolt Felelősségű Társaság (cégjsz.:1509089352) 3000000 2250000 2022-11-22 16:00:00
Üzletrész A cég főtevékenysége: Számítógépes programozás 3000000 2250000 2022-11-22 17:00:00
Üzletrész SZANDRA NOEL Korlátolt Felelősségű Társaság (cégjsz.:03-09-135972) 3000000 2250000 2022-11-22 17:00:00
Üzletrész Rotalex-Invest Építőipari Korlátolt Felelősségű Társaság (cégjsz.:0109389489) 3000000 2250000 2022-11-22 18:00:00
Üzletrész LAK WORKING KORLÁTOLT FELELŐSSÉGŰ TÁRSASÁG (cégjsz.:0109351606) 3000000 2250000 2022-11-22 18:00:00
Üzletrész Casas en Espana Korlátolt Felelősségű Társaság (cégjsz.:01-09-328383) 3000000 2250000 2022-11-22 18:00:00
Üzletrész Hungary Work Team Korlátolt Felelősségű Társaság (cégjsz.:01-09-388916) 3000000 2250000 2022-11-22 18:00:00
Üzletrész Onroad Transport Korlátolt Felelősségű Társaság (cégjsz.:03-09-135893) 3000000 2250000 2022-11-22 18:00:00
Üzletrész Árverésre kerül adós üzletrésze a MÓTI FUVAR ÉS 3000000 2250000 2022-11-22 20:00:00
Üzletrész Free Water Korlátolt Felelősségű Társaság (cégjsz.:01-09-283726) 3000000 2250000 2022-11-22 20:00:00
Üzletrész Axel Hungary Kft. (cégjsz.:13-09-213170) adós tulajdoni hányada:100%, annak 1500000 1125000 2022-11-23 19:00:00
Üzletrész Tape Fix Bau Korlátolt Felelősségű Társaság (cégjsz.:13-09-217284) adós 1500000 1125000 2022-11-23 19:00:00
Üzletrész Profi Stabil Work Kft. (cégjsz.:01-09-391631) adós tulajdoni hányada:100 1500000 1125000 2022-11-23 19:00:00
Üzletrész MÉVA-TEAM Korlátolt Felelősségű Társaság (cégjsz.:03-09-133672) adós tulajdoni hányada:100%, 500000 375000 2022-11-23 19:00:00
Üzletrész SMART CHOICE Kft. (cégjsz.:01-09-911333) 3000000 2250000 2022-11-25 08:00:00
Üzletrész Arginin Kft. (cégjsz.:01-09-351616) 3000000 2250000 2022-11-25 08:00:00
Üzletrész BUDA GENERÁL Kft. (cégjsz.:13-09-217001) 3000000 2250000 2022-11-25 09:00:00
Üzletrész Adós JUKI BUSZ Kft. -ben lévő üzletrésze. 3000000 2250000 2022-11-25 10:00:00
Üzletrész ORAHEG Kft. (cégjsz.:12-09-010669) 1000000 750000 2022-11-25 11:00:00
Üzletrész Adós RAF-BOARD Kft.-ben lévő üzletrésze. 3000000 2250000 2022-11-25 11:00:00
Üzletrész Főtevékenység: személygépjármű-, könnyügépjármű-kereskedelem 3000000 2250000 2022-11-25 15:00:00
Üzletrész A 01-09-388566 cégjegyzékszámon nyilvántartott Attala-Home Kft.vagyonából adós t 3000000 2250000 2022-11-25 15:00:00
Üzletrész Sport Biztos Munka Korlátolt Felelősségű Társaság (cégjsz.:01-09-387572) 3000000 2250000 2022-11-25 16:00:00
Üzletrész JF House color Ép Kft. (cégjsz.:01-09-392808) 3000000 2250000 2022-11-25 17:00:00
Üzletrész Lux-Flower Kft. (cégjsz.:13-09-196812) 1500000 1125000 2022-11-25 17:00:00
Üzletrész PERSE TEAM ÉPÍTŐ ÉS INGATLANFEJLESZTŐ KFT (cégjsz.:12-09-011182) 1000000 750000 2022-11-25 18:00:00
Üzletrész Adós BO&KA GOLD KERESKEDELMI ÉS SZOLGÁLTATÓ Kft. -ben 3000000 2250000 2022-11-25 18:00:00
Üzletrész SNAIL PEARL Gyártó és Kereskedelmi Kft. (cégjsz.:12-09-009587) 750000 562500 2022-11-25 19:00:00
Üzletrész SZURO-MIX Kft. (cégjsz.:01-09-386312) 3000000 2250000 2022-11-25 20:00:00
Üzletrész MAJOR CONSTRUCT Építőipari és Szolgáltató Korlátolt Felelősségű Társaság 3000000 2250000 2022-11-25 20:00:00
Üzletrész KUTKA PLUS BAU KORLÁTOLT FELELŐSSÉGŰ TÁRSASÁG (cégjsz.:0109373153) 3000000 2250000 2022-11-26 11:00:00
Üzletrész P-ROLAND INVEST KERESKEDELMI ÉS SZOLGÁLTATÓ KORLÁTOLT FELELŐSSÉG (cégjsz.:01-09-372676) 2100000 1575000 2022-11-26 13:00:00
Üzletrész NA-SZÉPÍTŐK KORLÁTOLT FELELŐSSÉGŰ TÁRSASÁG (cégjsz.:) 3000000 2250000 2022-11-26 13:00:00
Üzletrész FÖLDE-BAU KORLÁTOLT FELELŐSSÉGŰ TÁRSASÁG (cégjsz.:01-09-355034) 1200000 900000 2022-11-26 15:00:00
Üzletrész Herbaudvar Korlátolt Felelősségű Társaság (cégjsz.:0109329091) 3000000 2250000 2022-11-26 17:00:00
Üzletrész T.A.K.M. FAMILY KERESKEDELMI ÉS SZOLGÁLTATÓ KORLÁTOLT FELELŐSSÉG (cégjsz.:1309181992) 3000000 2250000 2022-11-26 18:00:00
Üzletrész Panthera-Immo Korlátolt Felelősségű Társaság (cégjsz.:1609018479) 3000000 2250000 2022-11-26 18:00:00
Üzletrész GERI FAMILY KORLÁTOLT FELELŐSSÉGŰ TÁRSASÁG (cégjsz.:0109203961) 30000000 22500000 2022-11-26 18:00:00

Csak azok az árverés alatt lévő ingóságok láthatóak, melyek lejárati határideje 2022-09-30 08:00:00 és 2022-11-26 18:00:00 között van.

Frissítve: 2022-09-27 17:46:46 UTC